Time;durP1;ratioP1;P1;durP2;ratioP2;P2;SDS_P1;SDS_P2;PMS_P1;PMS_P2;Temp;Humidity;BMP_temperature;BMP_pressure;BME280_temperature;BME280_humidity;BME280_pressure;Samples;Min_cycle;Max_cycle;Signal;HPM_P1;HPM_P2
2023/05/24 00:01:42;0.00;0.00;0.62;0.00;0.00;0.62;3.33;2.03;;;27.00;22.00;;;;;;2252821;61;20362;-59
2023/05/24 00:04:28;0.00;0.00;0.62;0.00;0.00;0.62;3.90;2.20;;;27.00;22.10;;;;;;2251708;61;20382;-62
2023/05/24 00:07:15;0.00;0.00;0.62;0.00;0.00;0.62;3.90;2.20;;;27.00;22.00;;;;;;2252604;61;20475;-59
2023/05/24 00:10:00;0.00;0.00;0.62;0.00;0.00;0.62;3.73;2.17;;;27.00;22.10;;;;;;2251881;61;20359;-59
2023/05/24 00:12:46;0.00;0.00;0.62;0.00;0.00;0.62;5.00;1.80;;;27.00;22.10;;;;;;2249002;61;20363;-59
2023/05/24 00:15:30;0.00;0.00;0.62;0.00;0.00;0.62;2.73;1.70;;;26.90;22.00;;;;;;2245673;61;20564;-60
2023/05/24 00:18:16;0.00;0.00;0.62;0.00;0.00;0.62;3.63;1.87;;;26.90;22.00;;;;;;2247483;61;20356;-55
2023/05/24 00:21:01;0.00;0.00;0.62;0.00;0.00;0.62;3.47;2.30;;;26.90;22.00;;;;;;2248400;61;20495;-57
2023/05/24 00:23:46;0.00;0.00;0.62;0.00;0.00;0.62;3.60;1.90;;;26.90;22.00;;;;;;2251556;61;20852;-62
2023/05/24 00:26:31;0.00;0.00;0.62;0.00;0.00;0.62;4.87;2.23;;;26.90;22.00;;;;;;2247682;61;20376;-59
2023/05/24 00:29:17;0.00;0.00;0.62;0.00;0.00;0.62;7.47;2.40;;;26.90;22.00;;;;;;2245036;61;20428;-61
2023/05/24 00:32:02;0.00;0.00;0.62;0.00;0.00;0.62;3.90;2.20;;;26.90;22.00;;;;;;2245251;61;20892;-59
2023/05/24 00:34:47;0.00;0.00;0.62;0.00;0.00;0.62;3.43;2.20;;;26.80;22.00;;;;;;2248098;61;20834;-58
2023/05/24 00:37:32;0.00;0.00;0.62;0.00;0.00;0.62;3.50;1.97;;;26.90;22.00;;;;;;2248618;61;20379;-59
2023/05/24 00:40:17;0.00;0.00;0.62;0.00;0.00;0.62;3.20;2.10;;;26.90;22.00;;;;;;2244025;61;20395;-59
2023/05/24 00:43:02;0.00;0.00;0.62;0.00;0.00;0.62;4.63;2.40;;;26.90;22.00;;;;;;2248816;61;20399;-62
2023/05/24 00:45:56;0.00;0.00;0.62;0.00;0.00;0.62;3.70;2.00;;;26.90;22.00;;;;;;2248743;61;21020;-57
2023/05/24 00:48:41;0.00;0.00;0.62;0.00;0.00;0.62;4.77;2.27;;;26.90;22.00;;;;;;2244373;61;20855;-57
2023/05/24 00:51:27;0.00;0.00;0.62;0.00;0.00;0.62;2.53;1.60;;;26.90;22.60;;;;;;2248899;61;20359;-57
2023/05/24 00:54:13;0.00;0.00;0.62;0.00;0.00;0.62;2.87;1.80;;;26.90;22.00;;;;;;2245064;61;20391;-65
2023/05/24 00:56:59;0.00;0.00;0.62;0.00;0.00;0.62;3.63;2.10;;;26.90;22.60;;;;;;2244700;61;20423;-62
2023/05/24 00:59:45;0.00;0.00;0.62;0.00;0.00;0.62;3.30;1.70;;;26.90;22.00;;;;;;2248125;61;20403;-59
2023/05/24 01:02:31;0.00;0.00;0.62;0.00;0.00;0.62;3.00;1.90;;;26.90;22.00;;;;;;2247637;61;20801;-61
2023/05/24 01:05:17;0.00;0.00;0.62;0.00;0.00;0.62;3.90;2.30;;;26.90;22.00;;;;;;2248599;61;20916;-55
2023/05/24 01:08:14;0.00;0.00;0.62;0.00;0.00;0.62;4.60;2.13;;;26.90;22.00;;;;;;2248376;61;20387;-57
2023/05/24 01:11:10;0.00;0.00;0.62;0.00;0.00;0.62;5.27;2.87;;;26.90;22.00;;;;;;2244084;61;20762;-59
2023/05/24 01:14:04;0.00;0.00;0.62;0.00;0.00;0.62;4.13;3.00;;;26.80;22.00;;;;;;2246415;61;20789;-56
2023/05/24 01:16:52;0.00;0.00;0.62;0.00;0.00;0.62;4.40;3.37;;;26.80;22.00;;;;;;2248630;61;20487;-61
2023/05/24 01:19:56;0.00;0.00;0.62;0.00;0.00;0.62;5.57;3.80;;;26.80;22.00;;;;;;2252090;61;20367;-59
2023/05/24 01:23:14;0.00;0.00;0.62;0.00;0.00;0.62;6.33;4.10;;;26.80;22.00;;;;;;2248332;61;20384;-58
2023/05/24 01:26:29;0.00;0.00;0.62;0.00;0.00;0.62;6.07;4.13;;;26.80;21.90;;;;;;2250410;61;20799;-62
2023/05/24 01:29:16;0.00;0.00;0.62;0.00;0.00;0.62;6.67;4.70;;;26.80;21.90;;;;;;2252167;61;20393;-59
2023/05/24 01:32:02;0.00;0.00;0.62;0.00;0.00;0.62;8.37;5.43;;;26.80;22.00;;;;;;2251710;61;20874;-57
2023/05/24 01:34:47;0.00;0.00;0.62;0.00;0.00;0.62;7.03;5.17;;;26.80;22.00;;;;;;2252493;61;20418;-60
2023/05/24 01:37:34;0.00;0.00;0.62;0.00;0.00;0.62;8.00;5.93;;;26.80;22.00;;;;;;2249168;61;20378;-57
2023/05/24 01:40:19;0.00;0.00;0.62;0.00;0.00;0.62;7.80;5.70;;;26.80;22.00;;;;;;2247835;61;20447;-56
2023/05/24 01:43:21;0.00;0.00;0.62;0.00;0.00;0.62;6.90;5.57;;;26.80;22.00;;;;;;2252511;61;20366;-61
2023/05/24 01:46:18;0.00;0.00;0.62;0.00;0.00;0.62;7.13;5.63;;;26.80;22.00;;;;;;2248594;61;20385;-65
2023/05/24 01:49:12;0.00;0.00;0.62;0.00;0.00;0.62;7.20;6.27;;;26.80;21.90;;;;;;2251391;61;20438;-59
2023/05/24 01:52:02;0.00;0.00;0.62;0.00;0.00;0.62;10.17;7.60;;;26.80;22.00;;;;;;2249289;61;20410;-61
2023/05/24 01:54:51;0.00;0.00;0.62;0.00;0.00;0.62;7.53;6.43;;;26.80;22.00;;;;;;2250794;61;20377;-56
2023/05/24 01:57:37;0.00;0.00;0.62;0.00;0.00;0.62;10.00;6.20;;;26.80;22.00;;;;;;2252417;61;20378;-58
2023/05/24 02:00:23;0.00;0.00;0.62;0.00;0.00;0.62;8.57;5.97;;;26.80;22.00;;;;;;2248676;61;20382;-65
2023/05/24 02:03:14;0.00;0.00;0.62;0.00;0.00;0.62;7.53;6.37;;;26.80;22.00;;;;;;2251402;61;20911;-58
2023/05/24 02:06:01;0.00;0.00;0.62;0.00;0.00;0.62;8.43;6.70;;;26.70;21.90;;;;;;2249057;61;20908;-58
2023/05/24 02:08:46;0.00;0.00;0.62;0.00;0.00;0.62;8.07;6.10;;;26.80;22.00;;;;;;2248831;61;20434;-58
2023/05/24 02:11:31;0.00;0.00;0.62;0.00;0.00;0.62;7.57;5.33;;;26.70;21.90;;;;;;2252108;61;20363;-56
2023/05/24 02:14:18;0.00;0.00;0.62;0.00;0.00;0.62;8.10;6.00;;;26.70;22.50;;;;;;2250544;61;20479;-58
2023/05/24 02:17:04;0.00;0.00;0.62;0.00;0.00;0.62;9.23;6.87;;;26.70;22.00;;;;;;2244221;61;20363;-61
2023/05/24 02:19:50;0.00;0.00;0.62;0.00;0.00;0.62;7.50;5.20;;;26.70;21.90;;;;;;2248012;61;20364;-57
2023/05/24 02:22:35;0.00;0.00;0.62;0.00;0.00;0.62;7.23;5.57;;;26.70;22.00;;;;;;2245847;61;20782;-59
2023/05/24 02:25:19;0.00;0.00;0.62;0.00;0.00;0.62;7.73;5.60;;;26.70;21.90;;;;;;2249385;61;20436;-62
2023/05/24 02:28:04;0.00;0.00;0.62;0.00;0.00;0.62;6.87;5.50;;;26.70;22.00;;;;;;2244837;61;20993;-62
2023/05/24 02:30:50;0.00;0.00;0.62;0.00;0.00;0.62;6.90;5.00;;;26.70;22.00;;;;;;2247858;61;20809;-62
2023/05/24 02:33:34;0.00;0.00;0.62;0.00;0.00;0.62;8.33;6.43;;;26.70;22.00;;;;;;2247981;61;20403;-59
2023/05/24 02:36:22;0.00;0.00;0.62;0.00;0.00;0.62;5.30;4.80;;;26.60;21.90;;;;;;2248520;61;20403;-55
2023/05/24 02:39:07;0.00;0.00;0.62;0.00;0.00;0.62;8.53;6.03;;;26.60;21.90;;;;;;2246483;61;20375;-55
2023/05/24 02:41:51;0.00;0.00;0.62;0.00;0.00;0.62;6.10;5.00;;;26.60;21.90;;;;;;2248272;61;20395;-62
2023/05/24 02:44:37;0.00;0.00;0.62;0.00;0.00;0.62;8.10;5.60;;;26.60;22.00;;;;;;2248256;61;20459;-61
2023/05/24 02:47:21;0.00;0.00;0.62;0.00;0.00;0.62;7.13;5.27;;;26.60;21.90;;;;;;2247220;61;20367;-59
2023/05/24 02:50:07;0.00;0.00;0.62;0.00;0.00;0.62;7.27;4.30;;;26.60;22.50;;;;;;2247859;61;20388;-59
2023/05/24 02:52:53;0.00;0.00;0.62;0.00;0.00;0.62;7.83;5.37;;;26.60;22.00;;;;;;2248025;61;20383;-62
2023/05/24 02:55:38;0.00;0.00;0.62;0.00;0.00;0.62;7.23;4.83;;;26.60;22.00;;;;;;2244533;61;20392;-59
2023/05/24 02:58:23;0.00;0.00;0.62;0.00;0.00;0.62;9.00;4.67;;;26.60;22.00;;;;;;2248407;61;20823;-56
2023/05/24 03:01:08;0.00;0.00;0.62;0.00;0.00;0.62;5.40;4.70;;;26.60;22.00;;;;;;2244068;61;20418;-65
2023/05/24 03:03:54;0.00;0.00;0.62;0.00;0.00;0.62;7.30;4.87;;;26.60;22.00;;;;;;2245605;61;20939;-57
2023/05/24 03:06:39;0.00;0.00;0.62;0.00;0.00;0.62;8.27;5.80;;;26.60;22.00;;;;;;2245848;61;20774;-57
2023/05/24 03:09:26;0.00;0.00;0.62;0.00;0.00;0.62;8.97;4.63;;;26.60;22.00;;;;;;2247005;61;20423;-62
2023/05/24 03:12:12;0.00;0.00;0.62;0.00;0.00;0.62;7.03;4.87;;;26.60;22.00;;;;;;2245902;61;20440;-58
2023/05/24 03:14:57;0.00;0.00;0.62;0.00;0.00;0.62;4.97;4.10;;;26.50;22.00;;;;;;2245260;61;20446;-60
2023/05/24 03:17:42;0.00;0.00;0.62;0.00;0.00;0.62;6.80;4.43;;;26.50;22.00;;;;;;2245025;61;20920;-58
2023/05/24 03:20:26;0.00;0.00;0.62;0.00;0.00;0.62;6.27;4.27;;;26.50;22.00;;;;;;2245511;61;20399;-58
2023/05/24 03:23:11;0.00;0.00;0.62;0.00;0.00;0.62;6.20;4.60;;;26.50;22.00;;;;;;2246513;61;20835;-61
2023/05/24 03:25:57;0.00;0.00;0.62;0.00;0.00;0.62;7.50;5.00;;;26.50;22.00;;;;;;2246721;61;20773;-59
2023/05/24 03:28:43;0.00;0.00;0.62;0.00;0.00;0.62;5.97;3.80;;;26.50;22.00;;;;;;2245812;61;20487;-60
2023/05/24 03:31:28;0.00;0.00;0.62;0.00;0.00;0.62;5.47;3.30;;;26.50;22.00;;;;;;2244552;61;20935;-56
2023/05/24 03:34:13;0.00;0.00;0.62;0.00;0.00;0.62;6.07;4.10;;;26.50;22.00;;;;;;2245752;61;20387;-60
2023/05/24 03:36:58;0.00;0.00;0.62;0.00;0.00;0.62;5.93;4.37;;;26.50;22.00;;;;;;2245471;61;20410;-62
2023/05/24 03:39:43;0.00;0.00;0.62;0.00;0.00;0.62;6.60;4.33;;;26.50;22.00;;;;;;2244512;61;20427;-58
2023/05/24 03:42:51;0.00;0.00;0.62;0.00;0.00;0.62;5.70;4.10;;;26.50;22.00;;;;;;2245961;61;20419;-61
2023/05/24 03:45:39;0.00;0.00;0.62;0.00;0.00;0.62;6.40;3.40;;;26.50;22.00;;;;;;2247441;61;20426;-59
2023/05/24 03:48:24;0.00;0.00;0.62;0.00;0.00;0.62;5.20;3.83;;;26.40;22.10;;;;;;2248848;61;20448;-57
2023/05/24 03:51:09;0.00;0.00;0.62;0.00;0.00;0.62;5.10;3.60;;;26.40;22.00;;;;;;2245396;61;20364;-61
2023/05/24 03:53:55;0.00;0.00;0.62;0.00;0.00;0.62;6.40;4.37;;;26.40;22.00;;;;;;2247746;61;20383;-57
2023/05/24 03:56:40;0.00;0.00;0.62;0.00;0.00;0.62;6.10;3.70;;;26.40;22.00;;;;;;2245563;61;20364;-59
2023/05/24 03:59:29;0.00;0.00;0.62;0.00;0.00;0.62;5.83;3.60;;;26.40;22.10;;;;;;2244697;61;20472;-59
2023/05/24 04:02:14;0.00;0.00;0.62;0.00;0.00;0.62;5.90;4.30;;;26.40;22.10;;;;;;2245101;61;20414;-60
2023/05/24 04:04:59;0.00;0.00;0.62;0.00;0.00;0.62;5.60;3.30;;;26.40;22.10;;;;;;2248774;61;20468;-60
2023/05/24 04:07:45;0.00;0.00;0.62;0.00;0.00;0.62;6.17;3.43;;;26.30;22.00;;;;;;2241602;61;20446;-60
2023/05/24 04:10:30;0.00;0.00;0.62;0.00;0.00;0.62;6.87;4.00;;;26.40;22.60;;;;;;2245339;61;20379;-58
2023/05/24 04:13:15;0.00;0.00;0.62;0.00;0.00;0.62;5.40;3.40;;;26.40;22.10;;;;;;2248570;61;20399;-65
2023/05/24 04:16:01;0.00;0.00;0.62;0.00;0.00;0.62;5.00;3.33;;;26.40;22.10;;;;;;2248672;61;20383;-60
2023/05/24 04:18:46;0.00;0.00;0.62;0.00;0.00;0.62;6.10;4.17;;;26.30;22.00;;;;;;2249537;61;20413;-61
2023/05/24 04:21:32;0.00;0.00;0.62;0.00;0.00;0.62;6.20;3.53;;;26.30;22.00;;;;;;2249052;61;20371;-60
2023/05/24 04:24:16;0.00;0.00;0.62;0.00;0.00;0.62;5.93;4.10;;;26.30;22.10;;;;;;2244959;61;20494;-59
2023/05/24 04:27:02;0.00;0.00;0.62;0.00;0.00;0.62;6.03;4.20;;;26.30;22.10;;;;;;2249631;61;20446;-58
2023/05/24 04:29:52;0.00;0.00;0.62;0.00;0.00;0.62;5.27;3.57;;;26.30;22.10;;;;;;2248234;61;20414;-61
2023/05/24 04:32:39;0.00;0.00;0.62;0.00;0.00;0.62;6.00;4.40;;;26.30;22.10;;;;;;2249791;61;20367;-59
2023/05/24 04:35:24;0.00;0.00;0.62;0.00;0.00;0.62;6.57;5.10;;;26.30;22.10;;;;;;2249393;61;20382;-55
2023/05/24 04:38:11;0.00;0.00;0.62;0.00;0.00;0.62;6.17;4.70;;;26.30;22.20;;;;;;2248340;61;20398;-59
2023/05/24 04:40:56;0.00;0.00;0.62;0.00;0.00;0.62;6.27;4.80;;;26.30;22.20;;;;;;2252451;61;20890;-57
2023/05/24 04:43:41;0.00;0.00;0.62;0.00;0.00;0.62;6.93;4.53;;;26.30;22.20;;;;;;2252087;61;20430;-59
2023/05/24 04:46:26;0.00;0.00;0.62;0.00;0.00;0.62;6.80;4.87;;;26.30;22.20;;;;;;2251894;61;20421;-58
2023/05/24 04:49:13;0.00;0.00;0.62;0.00;0.00;0.62;7.80;5.43;;;26.30;22.20;;;;;;2252350;61;20426;-59
2023/05/24 04:51:58;0.00;0.00;0.62;0.00;0.00;0.62;7.83;5.97;;;26.30;22.20;;;;;;2251581;61;20948;-59
2023/05/24 04:54:42;0.00;0.00;0.62;0.00;0.00;0.62;6.60;5.27;;;26.30;22.70;;;;;;2249519;61;20429;-60
2023/05/24 04:57:27;0.00;0.00;0.62;0.00;0.00;0.62;8.60;5.83;;;26.30;22.20;;;;;;2252489;61;20761;-59
2023/05/24 05:00:13;0.00;0.00;0.62;0.00;0.00;0.62;8.10;5.97;;;26.30;22.20;;;;;;2250861;61;20413;-58
2023/05/24 05:02:58;0.00;0.00;0.62;0.00;0.00;0.62;7.67;5.83;;;26.30;22.20;;;;;;2252696;61;20362;-56
2023/05/24 05:05:45;0.00;0.00;0.62;0.00;0.00;0.62;8.37;5.87;;;26.30;22.20;;;;;;2252318;61;20374;-60
2023/05/24 05:08:30;0.00;0.00;0.62;0.00;0.00;0.62;8.47;6.60;;;26.30;22.20;;;;;;2251964;61;20434;-58
2023/05/24 05:11:15;0.00;0.00;0.62;0.00;0.00;0.62;7.83;6.03;;;26.30;22.30;;;;;;2252393;61;20407;-59
2023/05/24 05:14:00;0.00;0.00;0.62;0.00;0.00;0.62;9.67;6.70;;;26.30;22.30;;;;;;2250221;61;20781;-58
2023/05/24 05:16:45;0.00;0.00;0.62;0.00;0.00;0.62;8.80;6.60;;;26.30;22.30;;;;;;2248613;61;20407;-58
2023/05/24 05:19:29;0.00;0.00;0.62;0.00;0.00;0.62;8.00;6.27;;;26.30;22.30;;;;;;2245076;61;20403;-58
2023/05/24 05:22:16;0.00;0.00;0.62;0.00;0.00;0.62;7.37;6.57;;;26.30;22.30;;;;;;2244209;61;20778;-55
2023/05/24 05:25:00;0.00;0.00;0.62;0.00;0.00;0.62;7.63;6.17;;;26.30;22.30;;;;;;2250690;61;20796;-62
2023/05/24 05:27:45;0.00;0.00;0.62;0.00;0.00;0.62;8.27;6.43;;;26.30;22.30;;;;;;2248457;61;20475;-59
2023/05/24 05:30:30;0.00;0.00;0.62;0.00;0.00;0.62;8.13;6.80;;;26.30;22.30;;;;;;2247319;61;20872;-57
2023/05/24 05:33:14;0.00;0.00;0.62;0.00;0.00;0.62;7.17;6.40;;;26.30;22.30;;;;;;2248661;61;20419;-59
2023/05/24 05:36:00;0.00;0.00;0.62;0.00;0.00;0.62;8.67;6.20;;;26.30;22.30;;;;;;2248218;61;20363;-62
2023/05/24 05:38:45;0.00;0.00;0.62;0.00;0.00;0.62;9.67;7.20;;;26.30;22.30;;;;;;2248193;61;20415;-58
2023/05/24 05:41:30;0.00;0.00;0.62;0.00;0.00;0.62;9.40;6.93;;;26.20;22.20;;;;;;2248675;61;20376;-58
2023/05/24 05:44:15;0.00;0.00;0.62;0.00;0.00;0.62;9.63;6.73;;;26.20;22.30;;;;;;2247116;61;20387;-57
2023/05/24 05:47:00;0.00;0.00;0.62;0.00;0.00;0.62;9.07;7.07;;;26.30;22.30;;;;;;2248347;61;20363;-55
2023/05/24 05:49:44;0.00;0.00;0.62;0.00;0.00;0.62;7.83;6.30;;;26.30;22.30;;;;;;2244728;61;20888;-58
2023/05/24 05:52:29;0.00;0.00;0.62;0.00;0.00;0.62;7.57;5.60;;;26.30;22.30;;;;;;2247610;61;20368;-57
2023/05/24 05:55:15;0.00;0.00;0.62;0.00;0.00;0.62;7.93;6.03;;;26.30;22.40;;;;;;2248344;61;20383;-56
2023/05/24 05:58:00;0.00;0.00;0.62;0.00;0.00;0.62;7.17;5.90;;;26.30;22.40;;;;;;2247965;61;20916;-59
2023/05/24 06:00:45;0.00;0.00;0.62;0.00;0.00;0.62;8.47;6.20;;;26.30;22.40;;;;;;2247488;61;20452;-60
2023/05/24 06:03:29;0.00;0.00;0.62;0.00;0.00;0.62;12.17;6.67;;;26.30;22.40;;;;;;2248352;61;20360;-60
2023/05/24 06:06:14;0.00;0.00;0.62;0.00;0.00;0.62;10.40;6.63;;;26.20;22.30;;;;;;2246974;61;20423;-62
2023/05/24 06:08:59;0.00;0.00;0.62;0.00;0.00;0.62;9.00;5.90;;;26.20;22.30;;;;;;2247832;61;20383;-62
2023/05/24 06:11:45;0.00;0.00;0.62;0.00;0.00;0.62;7.07;5.57;;;26.20;22.30;;;;;;2248321;61;20367;-63
2023/05/24 06:14:31;0.00;0.00;0.62;0.00;0.00;0.62;6.97;5.43;;;26.20;22.40;;;;;;2249403;61;20471;-60
2023/05/24 06:17:17;0.00;0.00;0.62;0.00;0.00;0.62;6.73;5.10;;;26.20;22.30;;;;;;2252242;61;20366;-57
2023/05/24 06:20:10;0.00;0.00;0.62;0.00;0.00;0.62;6.30;4.90;;;26.30;22.40;;;;;;2251204;61;20379;-61
2023/05/24 06:22:55;0.00;0.00;0.62;0.00;0.00;0.62;7.07;5.00;;;26.20;22.30;;;;;;2245955;61;20372;-60
2023/05/24 06:25:42;0.00;0.00;0.62;0.00;0.00;0.62;8.00;5.23;;;26.30;22.40;;;;;;2249305;61;20398;-58
2023/05/24 06:28:28;0.00;0.00;0.62;0.00;0.00;0.62;7.47;4.93;;;26.20;22.40;;;;;;2251021;61;20475;-56
2023/05/24 06:31:13;0.00;0.00;0.62;0.00;0.00;0.62;8.73;5.67;;;26.20;22.40;;;;;;2252156;61;20433;-57
2023/05/24 06:33:58;0.00;0.00;0.62;0.00;0.00;0.62;6.73;4.30;;;26.20;22.40;;;;;;2252048;61;20445;-59
2023/05/24 06:36:42;0.00;0.00;0.62;0.00;0.00;0.62;6.87;5.00;;;26.20;22.40;;;;;;2251451;61;20382;-56
2023/05/24 06:39:27;0.00;0.00;0.62;0.00;0.00;0.62;6.30;4.83;;;26.20;22.40;;;;;;2251979;61;20478;-58
2023/05/24 06:42:12;0.00;0.00;0.62;0.00;0.00;0.62;6.47;4.40;;;26.20;22.40;;;;;;2251641;61;20857;-62
2023/05/24 06:45:04;0.00;0.00;0.62;0.00;0.00;0.62;6.20;4.93;;;26.30;22.50;;;;;;2248155;61;20490;-59
2023/05/24 06:47:50;0.00;0.00;0.62;0.00;0.00;0.62;5.73;4.70;;;26.20;22.40;;;;;;2249116;61;20379;-61
2023/05/24 06:50:36;0.00;0.00;0.62;0.00;0.00;0.62;6.80;4.47;;;26.30;22.50;;;;;;2250581;61;20830;-60
2023/05/24 06:53:21;0.00;0.00;0.62;0.00;0.00;0.62;5.20;4.40;;;26.20;22.40;;;;;;2252125;61;20863;-57
2023/05/24 06:56:08;0.00;0.00;0.62;0.00;0.00;0.62;7.20;3.97;;;26.20;22.40;;;;;;2252267;61;20359;-63
2023/05/24 06:58:52;0.00;0.00;0.62;0.00;0.00;0.62;5.53;4.27;;;26.20;22.40;;;;;;2250669;61;20413;-57
2023/05/24 07:01:41;0.00;0.00;0.62;0.00;0.00;0.62;4.77;3.60;;;26.20;22.50;;;;;;2252319;61;20381;-59
2023/05/24 07:04:27;0.00;0.00;0.62;0.00;0.00;0.62;8.27;4.27;;;26.30;22.50;;;;;;2251613;61;20410;-62
2023/05/24 07:07:13;0.00;0.00;0.62;0.00;0.00;0.62;5.33;3.97;;;26.20;22.40;;;;;;2251678;61;20366;-57
2023/05/24 07:09:57;0.00;0.00;0.62;0.00;0.00;0.62;6.07;3.73;;;26.20;22.40;;;;;;2251881;61;20398;-60
2023/05/24 07:12:42;0.00;0.00;0.62;0.00;0.00;0.62;5.90;4.10;;;26.30;22.50;;;;;;2251341;61;20911;-59
2023/05/24 07:15:26;0.00;0.00;0.62;0.00;0.00;0.62;4.80;3.87;;;26.20;22.40;;;;;;2248353;61;20386;-59
2023/05/24 07:18:13;0.00;0.00;0.62;0.00;0.00;0.62;5.33;3.80;;;26.30;22.50;;;;;;2248142;61;20387;-62
2023/05/24 07:20:58;0.00;0.00;0.62;0.00;0.00;0.62;7.57;4.30;;;26.30;22.50;;;;;;2246829;61;20399;-60
2023/05/24 07:23:43;0.00;0.00;0.62;0.00;0.00;0.62;6.57;3.47;;;26.30;22.50;;;;;;2250743;61;20458;-61
2023/05/24 07:26:28;0.00;0.00;0.62;0.00;0.00;0.62;5.93;4.10;;;26.20;22.50;;;;;;2248266;61;20368;-61
2023/05/24 07:29:13;0.00;0.00;0.62;0.00;0.00;0.62;6.00;4.03;;;26.30;22.50;;;;;;2247146;61;20915;-57
2023/05/24 07:31:57;0.00;0.00;0.62;0.00;0.00;0.62;7.00;3.53;;;26.30;22.50;;;;;;2248549;61;20435;-57
2023/05/24 07:34:43;0.00;0.00;0.62;0.00;0.00;0.62;5.70;3.47;;;26.30;22.60;;;;;;2247240;61;20427;-63
2023/05/24 07:37:29;0.00;0.00;0.62;0.00;0.00;0.62;4.70;3.60;;;26.30;22.50;;;;;;2247972;61;20387;-57
2023/05/24 07:40:13;0.00;0.00;0.62;0.00;0.00;0.62;5.03;3.57;;;26.30;22.60;;;;;;2247717;61;20408;-60
2023/05/24 07:42:58;0.00;0.00;0.62;0.00;0.00;0.62;5.53;3.23;;;26.30;22.60;;;;;;2246849;61;20368;-59
2023/05/24 07:45:43;0.00;0.00;0.62;0.00;0.00;0.62;6.97;4.30;;;26.30;22.60;;;;;;2247875;61;20926;-58
2023/05/24 07:48:28;0.00;0.00;0.62;0.00;0.00;0.62;4.40;3.30;;;26.30;22.60;;;;;;2248391;61;20806;-59
2023/05/24 07:51:14;0.00;0.00;0.62;0.00;0.00;0.62;5.00;3.00;;;26.30;22.60;;;;;;2247717;61;20368;-58
2023/05/24 07:53:59;0.00;0.00;0.62;0.00;0.00;0.62;5.00;3.07;;;26.30;22.60;;;;;;2248710;61;20935;-58
2023/05/24 07:56:44;0.00;0.00;0.62;0.00;0.00;0.62;6.00;3.17;;;26.30;22.60;;;;;;2248209;61;20391;-64
2023/05/24 07:59:28;0.00;0.00;0.62;0.00;0.00;0.62;6.63;4.00;;;26.20;22.50;;;;;;2248013;61;20360;-60
2023/05/24 08:02:15;0.00;0.00;0.62;0.00;0.00;0.62;3.80;2.70;;;26.30;22.60;;;;;;2245604;61;20411;-61
2023/05/24 08:05:00;0.00;0.00;0.62;0.00;0.00;0.62;5.20;3.37;;;26.30;22.60;;;;;;2247448;61;20462;-60
2023/05/24 08:07:46;0.00;0.00;0.62;0.00;0.00;0.62;6.47;3.47;;;26.20;22.60;;;;;;2248519;61;20908;-60
2023/05/24 08:10:31;0.00;0.00;0.62;0.00;0.00;0.62;7.03;3.37;;;26.30;22.60;;;;;;2247821;61;20418;-62
2023/05/24 08:13:16;0.00;0.00;0.62;0.00;0.00;0.62;4.80;3.27;;;26.30;22.60;;;;;;2247725;61;20367;-61
2023/05/24 08:16:01;0.00;0.00;0.62;0.00;0.00;0.62;4.83;3.23;;;26.30;22.60;;;;;;2248831;61;20402;-60
2023/05/24 08:18:45;0.00;0.00;0.62;0.00;0.00;0.62;3.73;3.00;;;26.30;22.60;;;;;;2248196;61;20395;-59
2023/05/24 08:21:30;0.00;0.00;0.62;0.00;0.00;0.62;7.00;3.87;;;26.30;22.70;;;;;;2245521;61;20423;-62
2023/05/24 08:24:17;0.00;0.00;0.62;0.00;0.00;0.62;5.00;3.43;;;26.30;22.70;;;;;;2252373;61;20394;-58
2023/05/24 08:27:03;0.00;0.00;0.62;0.00;0.00;0.62;4.83;3.30;;;26.20;22.70;;;;;;2247561;61;20940;-58
2023/05/24 08:29:48;0.00;0.00;0.62;0.00;0.00;0.62;6.70;3.20;;;26.30;22.70;;;;;;2248376;61;20427;-60
2023/05/24 08:32:32;0.00;0.00;0.62;0.00;0.00;0.62;5.50;3.70;;;26.30;22.70;;;;;;2245578;61;20855;-62
2023/05/24 08:35:17;0.00;0.00;0.62;0.00;0.00;0.62;6.53;3.27;;;26.30;22.70;;;;;;2247489;61;20472;-62
2023/05/24 08:38:01;0.00;0.00;0.62;0.00;0.00;0.62;8.00;3.10;;;26.30;22.70;;;;;;2248725;61;20985;-57
2023/05/24 08:40:48;0.00;0.00;0.62;0.00;0.00;0.62;3.60;2.87;;;26.30;22.80;;;;;;2247931;61;20395;-62
2023/05/24 08:43:34;0.00;0.00;0.62;0.00;0.00;0.62;4.50;3.10;;;26.30;22.80;;;;;;2248152;61;20364;-58
2023/05/24 08:46:19;0.00;0.00;0.62;0.00;0.00;0.62;4.30;3.50;;;26.30;22.80;;;;;;2248864;61;20924;-58
2023/05/24 08:49:06;0.00;0.00;0.62;0.00;0.00;0.62;4.40;3.07;;;26.30;22.80;;;;;;2246931;61;20403;-62
2023/05/24 08:51:51;0.00;0.00;0.62;0.00;0.00;0.62;4.60;3.23;;;26.30;22.80;;;;;;2248774;61;20878;-59
2023/05/24 08:54:37;0.00;0.00;0.62;0.00;0.00;0.62;5.43;4.10;;;26.30;22.80;;;;;;2248640;61;20383;-61
2023/05/24 08:57:25;0.00;0.00;0.62;0.00;0.00;0.62;5.67;3.50;;;26.30;22.90;;;;;;2244633;61;20448;-56
2023/05/24 09:00:11;0.00;0.00;0.62;0.00;0.00;0.62;3.87;3.20;;;26.30;22.90;;;;;;2244988;61;20359;-58
2023/05/24 09:02:58;0.00;0.00;0.62;0.00;0.00;0.62;5.23;3.80;;;26.30;22.90;;;;;;2248060;61;20787;-57
2023/05/24 09:05:44;0.00;0.00;0.62;0.00;0.00;0.62;6.17;3.70;;;26.30;22.90;;;;;;2247943;61;20434;-60
2023/05/24 09:08:33;0.00;0.00;0.62;0.00;0.00;0.62;6.37;3.90;;;26.30;22.90;;;;;;2248822;61;20391;-59
2023/05/24 09:11:23;0.00;0.00;0.62;0.00;0.00;0.62;5.63;3.37;;;26.30;22.90;;;;;;2247306;61;20415;-58
2023/05/24 09:14:10;0.00;0.00;0.62;0.00;0.00;0.62;5.50;3.80;;;26.30;22.90;;;;;;2250111;61;20394;-63
2023/05/24 09:16:55;0.00;0.00;0.62;0.00;0.00;0.62;5.90;4.40;;;26.30;22.90;;;;;;2252303;61;20374;-63
2023/05/24 09:19:44;0.00;0.00;0.62;0.00;0.00;0.62;5.10;3.90;;;26.30;22.90;;;;;;2251115;61;20908;-57
2023/05/24 09:22:29;0.00;0.00;0.62;0.00;0.00;0.62;5.30;3.87;;;26.30;22.90;;;;;;2251654;61;20372;-59
2023/05/24 09:25:14;0.00;0.00;0.62;0.00;0.00;0.62;7.40;4.27;;;26.30;22.90;;;;;;2249618;61;20923;-57
2023/05/24 09:28:06;0.00;0.00;0.62;0.00;0.00;0.62;6.60;4.07;;;26.30;22.90;;;;;;2252078;61;20455;-59
2023/05/24 09:31:03;0.00;0.00;0.62;0.00;0.00;0.62;5.03;3.70;;;26.30;22.90;;;;;;2252135;61;20841;-57
2023/05/24 09:33:48;0.00;0.00;0.62;0.00;0.00;0.62;5.40;3.40;;;26.30;22.90;;;;;;2251251;61;20363;-61
2023/05/24 09:36:33;0.00;0.00;0.62;0.00;0.00;0.62;7.37;4.40;;;26.30;22.90;;;;;;2252581;61;20386;-62
2023/05/24 09:39:19;0.00;0.00;0.62;0.00;0.00;0.62;4.30;3.47;;;26.30;22.90;;;;;;2248589;61;20358;-60
2023/05/24 09:42:05;0.00;0.00;0.62;0.00;0.00;0.62;5.57;3.73;;;26.30;22.90;;;;;;2251924;61;20363;-58
2023/05/24 09:44:59;0.00;0.00;0.62;0.00;0.00;0.62;4.03;3.43;;;26.30;22.90;;;;;;2252344;61;20805;-63
2023/05/24 09:47:45;0.00;0.00;0.62;0.00;0.00;0.62;7.87;4.10;;;26.30;22.90;;;;;;2251650;61;20791;-65
2023/05/24 09:50:30;0.00;0.00;0.62;0.00;0.00;0.62;7.17;4.10;;;26.30;22.90;;;;;;2251799;61;20395;-57
2023/05/24 09:53:18;0.00;0.00;0.62;0.00;0.00;0.62;3.63;3.03;;;26.30;22.90;;;;;;2252358;61;20836;-59
2023/05/24 09:56:04;0.00;0.00;0.62;0.00;0.00;0.62;3.90;2.97;;;26.30;22.90;;;;;;2251101;61;20835;-60
2023/05/24 09:58:50;0.00;0.00;0.62;0.00;0.00;0.62;5.23;3.77;;;26.30;22.90;;;;;;2252474;61;20406;-59
2023/05/24 10:01:35;0.00;0.00;0.62;0.00;0.00;0.62;5.50;3.30;;;26.30;22.90;;;;;;2252326;61;20570;-57
2023/05/24 10:04:32;0.00;0.00;0.62;0.00;0.00;0.62;5.97;3.73;;;26.30;22.90;;;;;;2251563;61;20418;-59
2023/05/24 10:07:17;0.00;0.00;0.62;0.00;0.00;0.62;6.30;4.20;;;26.30;22.90;;;;;;2252517;61;20363;-59
2023/05/24 10:10:04;0.00;0.00;0.62;0.00;0.00;0.62;5.47;3.90;;;26.30;22.90;;;;;;2250936;61;20461;-63
2023/05/24 10:12:50;0.00;0.00;0.62;0.00;0.00;0.62;7.00;4.27;;;26.30;22.90;;;;;;2252448;61;20778;-58
2023/05/24 10:15:35;0.00;0.00;0.62;0.00;0.00;0.62;7.70;3.53;;;26.30;22.90;;;;;;2248490;61;20435;-57
2023/05/24 10:18:20;0.00;0.00;0.62;0.00;0.00;0.62;4.83;3.40;;;26.30;22.90;;;;;;2247240;61;20356;-58
2023/05/24 10:21:08;0.00;0.00;0.62;0.00;0.00;0.62;5.43;3.50;;;26.30;22.90;;;;;;2248210;61;20372;-55
2023/05/24 10:23:58;0.00;0.00;0.62;0.00;0.00;0.62;6.23;4.17;;;26.30;22.90;;;;;;2251175;61;20441;-60
2023/05/24 10:26:46;0.00;0.00;0.62;0.00;0.00;0.62;5.47;3.60;;;26.30;22.90;;;;;;2476590;53;20421;-59
2023/05/24 10:29:46;0.00;0.00;0.62;0.00;0.00;0.62;4.80;3.57;;;26.30;22.90;;;;;;2244083;61;20814;-58
2023/05/24 10:32:34;0.00;0.00;0.62;0.00;0.00;0.62;4.07;3.27;;;26.30;22.90;;;;;;2243517;61;20383;-60
2023/05/24 10:35:20;0.00;0.00;0.62;0.00;0.00;0.62;4.83;3.20;;;26.30;22.90;;;;;;2244455;61;20380;-61
2023/05/24 10:38:07;0.00;0.00;0.62;0.00;0.00;0.62;4.93;3.33;;;26.30;22.90;;;;;;2244397;61;20685;-59
2023/05/24 10:40:52;0.00;0.00;0.62;0.00;0.00;0.62;5.87;3.90;;;26.30;22.90;;;;;;2243100;61;20372;-60
2023/05/24 10:43:37;0.00;0.00;0.62;0.00;0.00;0.62;7.00;4.13;;;26.30;22.90;;;;;;2244340;61;20364;-59
2023/05/24 10:46:23;0.00;0.00;0.62;0.00;0.00;0.62;5.63;3.30;;;26.30;22.90;;;;;;2243956;61;20360;-61
2023/05/24 10:49:12;0.00;0.00;0.62;0.00;0.00;0.62;4.80;3.10;;;26.30;22.90;;;;;;2243393;61;20396;-58
2023/05/24 10:52:01;0.00;0.00;0.62;0.00;0.00;0.62;4.90;3.33;;;26.30;22.90;;;;;;2241473;61;20817;-63
2023/05/24 10:55:03;0.00;0.00;0.62;0.00;0.00;0.62;5.43;3.50;;;26.30;22.90;;;;;;2242929;61;20435;-59
2023/05/24 10:57:48;0.00;0.00;0.62;0.00;0.00;0.62;6.40;3.50;;;26.30;22.90;;;;;;2244273;61;20818;-59